Time;durP1;ratioP1;P1;durP2;ratioP2;P2;SDS_P1;SDS_P2;PMS_P1;PMS_P2;Temp;Humidity;BMP_temperature;BMP_pressure;BME280_temperature;BME280_humidity;BME280_pressure;Samples;Min_cycle;Max_cycle;Signal;HPM_P1;HPM_P2
2023/03/18 00:00:49;;;;;;;7.13;4.97;;;13.20;1.00;;;;;;5093360;28;20296;-61
2023/03/18 00:03:17;;;;;;;9.43;5.40;;;13.30;1.00;;;;;;5097297;28;20221;-61
2023/03/18 00:05:44;;;;;;;10.07;6.03;;;13.30;1.00;;;;;;5094915;27;20656;-61
2023/03/18 00:08:11;;;;;;;8.53;5.30;;;13.30;1.00;;;;;;5096544;28;20223;-61
2023/03/18 00:10:38;;;;;;;10.43;5.50;;;13.30;1.00;;;;;;5064594;28;20289;-61
2023/03/18 00:13:05;;;;;;;8.63;5.53;;;13.30;1.00;;;;;;5079052;28;22600;-61
2023/03/18 00:15:32;;;;;;;7.47;5.37;;;13.30;1.00;;;;;;5097383;28;20290;-61
2023/03/18 00:17:59;;;;;;;9.43;6.50;;;13.20;1.00;;;;;;5097948;28;20693;-60
2023/03/18 00:20:37;;;;;;;9.17;5.67;;;13.00;1.00;;;;;;5093375;28;20609;-61
2023/03/18 00:23:07;;;;;;;8.33;5.60;;;13.10;1.00;;;;;;5078715;27;20661;-61
2023/03/18 00:25:35;;;;;;;9.67;6.43;;;13.20;1.00;;;;;;5096654;28;20215;-61
2023/03/18 00:28:05;;;;;;;9.20;5.50;;;13.30;1.00;;;;;;5075718;28;20206;-61
2023/03/18 00:30:33;;;;;;;8.83;5.73;;;13.30;1.00;;;;;;5091209;28;20206;-61
2023/03/18 00:33:00;;;;;;;11.70;6.57;;;13.30;1.00;;;;;;5095604;27;20245;-61
2023/03/18 00:35:29;;;;;;;11.73;6.60;;;13.20;1.00;;;;;;5095032;28;20221;-61
2023/03/18 00:37:57;;;;;;;8.97;6.13;;;13.20;1.00;;;;;;5078822;28;20197;-61
2023/03/18 00:40:41;;;;;;;7.33;5.60;;;13.30;1.00;;;;;;5098553;28;20313;-61
2023/03/18 00:43:11;;;;;;;7.13;5.83;;;13.30;1.00;;;;;;5064111;27;20240;-62
2023/03/18 00:45:39;;;;;;;9.33;6.23;;;13.20;1.00;;;;;;5089290;28;20204;-62
2023/03/18 00:48:07;;;;;;;10.83;5.80;;;13.20;1.00;;;;;;5071905;28;20277;-61
2023/03/18 00:50:36;;;;;;;10.17;6.53;;;13.10;1.00;;;;;;5094089;27;20210;-61
2023/03/18 00:53:03;;;;;;;10.93;6.50;;;13.20;1.00;;;;;;5060788;28;20212;-61
2023/03/18 00:55:29;;;;;;;9.23;6.33;;;13.20;1.00;;;;;;5077225;28;20212;-61
2023/03/18 00:57:56;;;;;;;9.50;6.10;;;13.10;1.00;;;;;;5091578;28;20206;-61
2023/03/18 01:00:25;;;;;;;9.03;6.60;;;13.10;1.00;;;;;;5096595;27;20236;-61
2023/03/18 01:02:52;;;;;;;9.67;7.10;;;13.00;1.00;;;;;;5097711;27;20653;-61
2023/03/18 01:05:19;;;;;;;9.70;7.10;;;12.80;1.00;;;;;;5092862;28;20219;-61
2023/03/18 01:07:46;;;;;;;8.50;6.70;;;12.70;1.00;;;;;;5095179;27;20285;-61
2023/03/18 01:10:14;;;;;;;8.97;6.30;;;12.70;50.00;;;;;;5078949;28;20189;-64
2023/03/18 01:12:45;;;;;;;9.60;6.57;;;12.70;99.90;;;;;;5094547;28;20201;-61
2023/03/18 01:15:15;;;;;;;9.97;6.70;;;12.60;99.90;;;;;;5093244;28;20209;-61
2023/03/18 01:17:43;;;;;;;9.37;7.50;;;12.60;99.90;;;;;;5096751;28;20218;-61
2023/03/18 01:20:12;;;;;;;10.30;7.43;;;12.60;99.90;;;;;;5095498;28;20202;-61
2023/03/18 01:22:41;;;;;;;12.13;6.80;;;12.50;99.90;;;;;;5095304;27;20236;-61
2023/03/18 01:25:12;;;;;;;14.00;7.77;;;12.60;99.90;;;;;;5092614;28;20205;-61
2023/03/18 01:27:39;;;;;;;13.03;7.07;;;12.60;99.90;;;;;;5094670;27;20210;-61
2023/03/18 01:30:08;;;;;;;9.17;6.67;;;12.60;99.90;;;;;;5094457;28;20587;-62
2023/03/18 01:32:35;;;;;;;8.97;6.73;;;12.70;99.90;;;;;;5094215;28;20250;-61
2023/03/18 01:35:03;;;;;;;10.00;7.33;;;12.70;99.90;;;;;;5093775;28;20213;-61
2023/03/18 01:37:30;;;;;;;9.00;5.93;;;12.60;99.90;;;;;;5095073;28;20293;-63
2023/03/18 01:39:57;;;;;;;12.93;6.77;;;12.70;99.90;;;;;;5096313;28;20207;-61
2023/03/18 01:42:24;;;;;;;10.83;6.67;;;12.80;99.90;;;;;;5094801;28;20331;-61
2023/03/18 01:45:09;;;;;;;11.60;6.63;;;12.80;99.90;;;;;;5092118;28;20204;-61
2023/03/18 01:47:36;;;;;;;10.80;6.27;;;12.70;99.90;;;;;;5098679;28;20216;-61
2023/03/18 01:50:03;;;;;;;14.90;7.20;;;12.70;99.90;;;;;;5098364;28;20210;-61
2023/03/18 01:52:31;;;;;;;10.93;6.87;;;12.70;99.90;;;;;;5078918;28;20240;-61
2023/03/18 01:55:01;;;;;;;12.40;6.80;;;12.70;99.90;;;;;;5095856;28;20301;-61
2023/03/18 01:57:31;;;;;;;11.37;6.73;;;12.60;99.90;;;;;;5096619;28;20244;-61
2023/03/18 01:59:59;;;;;;;12.93;7.23;;;12.60;1.00;;;;;;5096573;28;20282;-61
2023/03/18 02:02:27;;;;;;;12.00;7.53;;;12.60;1.00;;;;;;5100024;28;20255;-61
2023/03/18 02:04:58;;;;;;;9.83;7.27;;;12.60;1.00;;;;;;5100835;28;20717;-61
2023/03/18 02:07:28;;;;;;;9.77;7.40;;;12.60;1.00;;;;;;5100722;28;20252;-62
2023/03/18 02:09:58;;;;;;;9.07;6.80;;;12.60;1.00;;;;;;5099311;28;20236;-61
2023/03/18 02:12:30;;;;;;;10.37;6.57;;;12.60;1.00;;;;;;5099767;28;20230;-61
2023/03/18 02:14:59;;;;;;;11.13;6.80;;;12.60;1.00;;;;;;5098955;28;20225;-61
2023/03/18 02:17:30;;;;;;;7.83;6.70;;;12.60;1.00;;;;;;5100046;28;20191;-61
2023/03/18 02:20:19;;;;;;;11.67;6.87;;;12.60;1.00;;;;;;5096960;28;20317;-61
2023/03/18 02:23:01;;;;;;;13.03;7.30;;;12.60;1.00;;;;;;5098177;28;20192;-61
2023/03/18 02:25:47;;;;;;;12.83;7.17;;;12.50;1.00;;;;;;5081258;28;20297;-61
2023/03/18 02:28:23;;;;;;;12.37;7.17;;;12.50;1.00;;;;;;5099695;28;20787;-62
2023/03/18 02:30:57;;;;;;;16.50;7.63;;;12.50;1.00;;;;;;5101364;28;20267;-62
2023/03/18 02:33:29;;;;;;;12.47;7.33;;;12.50;19.70;;;;;;5081867;28;20206;-61
2023/03/18 02:36:02;;;;;;;11.60;8.03;;;12.50;15.50;;;;;;5098817;28;20363;-62
2023/03/18 02:38:29;;;;;;;14.50;8.63;;;12.50;99.90;;;;;;5099005;28;20584;-62
2023/03/18 02:40:56;;;;;;;13.53;7.13;;;12.40;1.00;;;;;;5099236;28;20201;-61
2023/03/18 02:43:32;;;;;;;11.63;8.10;;;12.30;1.00;;;;;;5077961;28;20313;-61
2023/03/18 02:46:05;;;;;;;12.63;7.77;;;12.20;99.90;;;;;;5099166;28;20236;-61
2023/03/18 02:48:41;;;;;;;12.47;7.23;;;12.20;1.00;;;;;;5097969;28;20194;-61
2023/03/18 02:51:09;;;;;;;15.17;7.70;;;12.20;1.00;;;;;;5101094;28;20382;-61
2023/03/18 02:53:37;;;;;;;11.63;6.83;;;12.20;1.00;;;;;;5098871;28;20205;-61
2023/03/18 02:56:04;;;;;;;11.93;7.73;;;12.20;1.00;;;;;;5080435;28;20281;-61
2023/03/18 02:58:32;;;;;;;11.57;7.23;;;12.30;99.90;;;;;;5097383;28;20210;-61
2023/03/18 03:00:59;;;;;;;12.53;8.30;;;12.10;1.00;;;;;;5101036;28;20675;-61
2023/03/18 03:03:27;;;;;;;11.40;7.90;;;12.00;1.00;;;;;;5097722;28;20209;-61
2023/03/18 03:05:55;;;;;;;13.10;7.50;;;12.00;99.90;;;;;;5096936;28;20292;-61
2023/03/18 03:08:23;;;;;;;15.07;8.27;;;12.00;1.00;;;;;;5098404;28;20798;-61
2023/03/18 03:10:51;;;;;;;12.53;7.77;;;12.00;1.00;;;;;;5101159;28;20678;-62
2023/03/18 03:13:20;;;;;;;16.90;8.53;;;12.00;1.00;;;;;;5096365;28;20201;-61
2023/03/18 03:15:47;;;;;;;15.30;9.20;;;12.00;1.00;;;;;;5095998;28;20305;-61
2023/03/18 03:18:15;;;;;;;13.13;8.17;;;12.00;99.90;;;;;;5098981;27;20245;-61
2023/03/18 03:20:42;;;;;;;14.23;8.17;;;12.10;1.00;;;;;;5100351;28;20226;-61
2023/03/18 03:23:12;;;;;;;14.87;8.40;;;12.10;1.00;;;;;;5100039;28;20197;-61
2023/03/18 03:25:39;;;;;;;13.63;8.27;;;12.00;99.90;;;;;;5096209;28;20206;-61
2023/03/18 03:28:07;;;;;;;13.37;8.33;;;11.90;1.00;;;;;;5080521;28;20289;-61
2023/03/18 03:30:35;;;;;;;14.17;9.20;;;11.90;1.00;;;;;;5079232;28;20283;-61
2023/03/18 03:33:02;;;;;;;16.67;9.10;;;11.80;1.00;;;;;;5099459;28;20244;-61
2023/03/18 03:35:30;;;;;;;15.87;9.60;;;11.80;99.90;;;;;;5097188;28;20206;-61
2023/03/18 03:37:57;;;;;;;14.57;9.20;;;11.80;99.90;;;;;;5095912;28;20198;-61
2023/03/18 03:40:24;;;;;;;15.77;9.50;;;11.90;99.90;;;;;;5096554;28;20297;-61
2023/03/18 03:42:51;;;;;;;16.60;9.87;;;11.90;99.90;;;;;;5094290;28;20701;-60
2023/03/18 03:45:18;;;;;;;12.87;9.53;;;11.90;99.90;;;;;;5095764;28;20198;-60
2023/03/18 03:47:46;;;;;;;15.80;9.80;;;11.70;99.90;;;;;;5098719;28;20215;-60
2023/03/18 03:50:14;;;;;;;15.70;9.77;;;11.70;99.90;;;;;;5097952;28;20199;-60
2023/03/18 03:52:42;;;;;;;15.33;9.77;;;11.70;99.90;;;;;;5100257;28;20297;-60
2023/03/18 03:55:12;;;;;;;17.90;10.47;;;11.70;99.90;;;;;;5095207;28;20694;-60
2023/03/18 03:57:39;;;;;;;16.30;9.47;;;11.70;99.90;;;;;;5099049;28;20391;-60
2023/03/18 04:00:12;;;;;;;18.60;10.73;;;11.70;99.90;;;;;;5098832;28;20671;-62
2023/03/18 04:02:43;;;;;;;17.77;10.73;;;11.80;99.90;;;;;;5099245;28;20240;-60
2023/03/18 04:05:15;;;;;;;16.50;10.43;;;11.90;99.90;;;;;;5098058;28;20280;-61
2023/03/18 04:07:44;;;;;;;18.57;10.73;;;11.60;99.90;;;;;;5097251;28;20650;-61
2023/03/18 04:10:13;;;;;;;15.47;10.53;;;11.70;99.90;;;;;;5099570;28;20198;-60
2023/03/18 04:12:40;;;;;;;17.20;10.73;;;11.60;99.90;;;;;;5096521;28;20211;-62
2023/03/18 04:15:08;;;;;;;17.37;11.70;;;11.50;99.90;;;;;;5094881;28;20226;-62
2023/03/18 04:17:35;;;;;;;14.13;11.17;;;11.60;99.90;;;;;;5098190;28;20239;-60
2023/03/18 04:20:04;;;;;;;15.27;11.03;;;11.60;99.90;;;;;;5098543;28;20240;-60
2023/03/18 04:22:31;;;;;;;17.07;11.27;;;11.60;99.90;;;;;;5098485;28;20198;-62
2023/03/18 04:24:59;;;;;;;17.37;11.00;;;11.60;99.90;;;;;;5096215;28;20346;-60
2023/03/18 04:27:27;;;;;;;19.13;10.77;;;11.50;99.90;;;;;;5097993;28;20202;-60
2023/03/18 04:29:53;;;;;;;16.53;11.33;;;11.50;99.90;;;;;;5098070;28;20198;-60
2023/03/18 04:32:20;;;;;;;18.07;11.20;;;11.50;99.90;;;;;;5096725;28;20237;-60
2023/03/18 04:34:47;;;;;;;20.97;11.40;;;11.60;99.90;;;;;;5096158;28;20705;-60
2023/03/18 04:37:18;;;;;;;18.83;11.37;;;11.60;99.90;;;;;;5112671;27;20204;-60
2023/03/18 04:39:46;;;;;;;17.37;11.80;;;11.60;99.90;;;;;;5098149;28;20190;-60
2023/03/18 04:42:14;;;;;;;17.87;10.97;;;11.60;99.90;;;;;;5095620;28;20234;-60
2023/03/18 04:44:40;;;;;;;19.17;12.00;;;11.70;99.90;;;;;;5094415;28;20385;-60
2023/03/18 04:47:07;;;;;;;18.77;12.40;;;11.70;99.90;;;;;;5080321;28;20201;-60
2023/03/18 04:49:36;;;;;;;15.47;11.23;;;11.50;99.90;;;;;;5095536;27;20205;-60
2023/03/18 04:52:04;;;;;;;18.47;11.73;;;11.50;99.90;;;;;;5098342;28;20207;-60
2023/03/18 04:54:30;;;;;;;18.53;11.67;;;11.40;99.90;;;;;;5078435;28;20224;-62
2023/03/18 04:56:58;;;;;;;16.23;11.57;;;11.50;99.90;;;;;;5098743;28;20197;-61
2023/03/18 04:59:25;;;;;;;16.83;11.90;;;11.40;99.90;;;;;;5097370;28;20596;-60
2023/03/18 05:01:52;;;;;;;18.93;12.97;;;11.40;99.90;;;;;;5076244;28;20193;-60
2023/03/18 05:04:19;;;;;;;18.67;13.20;;;11.40;99.90;;;;;;5075694;28;20537;-60
2023/03/18 05:06:46;;;;;;;19.83;12.33;;;11.30;99.90;;;;;;5093972;28;20241;-60
2023/03/18 05:09:13;;;;;;;24.33;12.97;;;11.30;99.90;;;;;;5096289;27;20254;-60
2023/03/18 05:11:39;;;;;;;19.20;12.67;;;11.40;99.90;;;;;;5093209;28;20270;-60
2023/03/18 05:14:06;;;;;;;26.97;13.17;;;11.30;99.90;;;;;;5065491;28;20202;-60
2023/03/18 05:16:34;;;;;;;18.30;12.80;;;11.30;99.90;;;;;;5095386;28;20199;-61
2023/03/18 05:19:01;;;;;;;17.20;13.13;;;11.30;99.90;;;;;;5077494;28;20225;-60
2023/03/18 05:21:28;;;;;;;17.10;12.13;;;11.30;99.90;;;;;;5095595;27;20202;-60
2023/03/18 05:23:56;;;;;;;21.27;13.53;;;11.30;99.90;;;;;;5097592;27;20215;-60
2023/03/18 05:26:23;;;;;;;21.60;12.80;;;11.30;99.90;;;;;;5075501;28;20291;-61
2023/03/18 05:28:51;;;;;;;21.87;13.10;;;11.30;99.90;;;;;;5094237;28;20204;-61
2023/03/18 05:31:18;;;;;;;18.63;13.47;;;11.30;99.90;;;;;;5095683;28;20205;-60
2023/03/18 05:33:46;;;;;;;20.90;13.30;;;11.30;99.90;;;;;;5094479;28;20289;-60
2023/03/18 05:36:13;;;;;;;19.80;13.70;;;11.30;99.90;;;;;;5093325;28;20206;-60
2023/03/18 05:38:40;;;;;;;20.40;12.97;;;11.30;99.90;;;;;;5095566;28;20761;-60
2023/03/18 05:41:07;;;;;;;21.70;13.20;;;11.20;99.90;;;;;;5097186;28;20712;-61
2023/03/18 05:43:34;;;;;;;19.73;14.00;;;11.30;99.90;;;;;;5092589;28;20253;-60
2023/03/18 05:46:00;;;;;;;18.17;12.83;;;11.30;99.90;;;;;;5092671;28;20289;-60
2023/03/18 05:48:27;;;;;;;24.70;13.83;;;11.30;99.90;;;;;;5094302;28;20205;-60
2023/03/18 05:50:54;;;;;;;22.40;13.13;;;11.30;99.90;;;;;;5095902;28;20711;-61
2023/03/18 05:53:21;;;;;;;20.63;13.47;;;11.30;99.90;;;;;;5077630;28;20609;-60
2023/03/18 05:55:48;;;;;;;23.17;13.77;;;11.30;99.90;;;;;;5074452;28;20211;-60
2023/03/18 05:58:15;;;;;;;20.00;13.00;;;11.30;99.90;;;;;;5075821;28;20219;-60
2023/03/18 06:00:42;;;;;;;19.07;13.13;;;11.30;99.90;;;;;;5078937;28;20236;-60
2023/03/18 06:03:09;;;;;;;18.80;13.13;;;11.20;99.90;;;;;;5095754;28;20240;-60
2023/03/18 06:05:36;;;;;;;18.10;12.37;;;11.20;99.90;;;;;;5076071;28;20272;-60
2023/03/18 06:08:03;;;;;;;19.07;13.10;;;11.20;99.90;;;;;;5079272;28;20285;-60
2023/03/18 06:10:30;;;;;;;18.40;13.40;;;11.20;99.90;;;;;;5098594;28;20207;-61
2023/03/18 06:12:57;;;;;;;18.77;12.77;;;11.20;99.90;;;;;;5094222;28;20290;-61
2023/03/18 06:15:24;;;;;;;19.23;13.13;;;11.10;99.90;;;;;;5092365;28;20256;-61
2023/03/18 06:17:51;;;;;;;19.17;13.30;;;11.20;99.90;;;;;;5085685;28;20222;-61
2023/03/18 06:20:19;;;;;;;22.00;13.17;;;11.20;99.90;;;;;;5097588;28;20202;-61
2023/03/18 06:22:48;;;;;;;23.10;13.23;;;11.10;99.90;;;;;;5096720;28;20238;-61
2023/03/18 06:25:18;;;;;;;18.00;12.73;;;11.20;99.90;;;;;;5094538;28;20551;-61
2023/03/18 06:27:46;;;;;;;22.83;13.90;;;11.20;99.90;;;;;;5096255;28;20204;-64
2023/03/18 06:30:14;;;;;;;21.50;12.83;;;11.30;99.90;;;;;;5095419;28;20769;-61
2023/03/18 06:32:42;;;;;;;21.47;12.57;;;11.30;99.90;;;;;;5099073;28;20306;-61
2023/03/18 06:35:10;;;;;;;17.83;12.43;;;11.20;99.90;;;;;;5093645;28;20267;-61
2023/03/18 06:37:38;;;;;;;22.37;12.60;;;11.20;99.90;;;;;;5088961;28;20197;-61
2023/03/18 06:40:07;;;;;;;15.20;11.83;;;11.20;99.90;;;;;;5072083;28;20226;-60
2023/03/18 06:42:34;;;;;;;17.93;12.40;;;11.20;99.90;;;;;;5098694;28;20202;-61
2023/03/18 06:45:01;;;;;;;17.47;11.90;;;11.20;99.90;;;;;;5093334;28;20652;-60
2023/03/18 06:47:28;;;;;;;19.57;11.93;;;11.40;99.90;;;;;;5094982;27;20720;-62
2023/03/18 06:49:55;;;;;;;17.57;11.27;;;11.30;99.90;;;;;;5098748;28;20254;-62
2023/03/18 06:52:22;;;;;;;17.33;11.40;;;11.40;99.90;;;;;;5099015;28;20229;-60
2023/03/18 06:54:50;;;;;;;16.43;11.47;;;11.40;99.90;;;;;;5094585;28;20220;-60
2023/03/18 06:57:17;;;;;;;18.63;11.70;;;11.40;99.90;;;;;;5083469;28;20209;-61
2023/03/18 06:59:45;;;;;;;19.07;11.80;;;11.40;99.90;;;;;;5098454;28;20696;-61
2023/03/18 07:02:14;;;;;;;20.50;12.13;;;11.40;99.90;;;;;;5086931;28;20376;-62
2023/03/18 07:04:41;;;;;;;16.70;12.10;;;11.50;99.90;;;;;;5077009;28;20207;-61
2023/03/18 07:07:08;;;;;;;15.73;10.87;;;11.70;99.90;;;;;;5082377;28;20727;-60
2023/03/18 07:09:35;;;;;;;14.13;11.30;;;11.70;99.90;;;;;;5082648;28;20202;-61
2023/03/18 07:12:02;;;;;;;17.43;11.23;;;11.80;99.90;;;;;;5100653;28;20267;-62
2023/03/18 07:14:29;;;;;;;15.17;11.60;;;11.90;99.90;;;;;;5092953;27;20197;-62
2023/03/18 07:16:57;;;;;;;17.67;12.00;;;11.90;99.90;;;;;;5100490;27;20253;-61
2023/03/18 07:19:24;;;;;;;15.03;10.87;;;12.20;99.90;;;;;;5097493;27;20220;-60
2023/03/18 07:21:50;;;;;;;18.77;10.57;;;12.10;99.90;;;;;;5099051;28;20215;-61
2023/03/18 07:24:20;;;;;;;16.57;11.13;;;12.00;99.90;;;;;;4731074;28;9999974;-62
2023/03/18 07:26:49;;;;;;;16.10;10.53;;;12.00;99.90;;;;;;5063349;28;20689;-61
2023/03/18 07:29:16;;;;;;;16.23;11.33;;;12.00;99.90;;;;;;5095964;28;20195;-61
2023/03/18 07:31:43;;;;;;;12.73;9.73;;;12.10;99.90;;;;;;5073455;28;20203;-61
2023/03/18 07:34:11;;;;;;;16.77;9.80;;;12.20;99.90;;;;;;5084451;27;20210;-61
2023/03/18 07:36:38;;;;;;;12.30;9.90;;;12.30;99.90;;;;;;5079534;28;20225;-61
2023/03/18 07:39:06;;;;;;;14.37;10.57;;;12.40;99.90;;;;;;5073414;28;20225;-60
2023/03/18 07:41:33;;;;;;;13.63;9.67;;;12.30;99.90;;;;;;5090120;27;20205;-61
2023/03/18 07:44:05;;;;;;;15.33;9.27;;;12.40;99.90;;;;;;5078090;28;20233;-60
2023/03/18 07:46:32;;;;;;;14.87;10.43;;;12.40;99.90;;;;;;5072526;28;20218;-61
2023/03/18 07:48:59;;;;;;;12.67;9.90;;;12.60;99.90;;;;;;5090060;28;20202;-62
2023/03/18 07:51:26;;;;;;;12.80;9.27;;;12.60;99.90;;;;;;5097872;28;20209;-61
2023/03/18 07:53:54;;;;;;;13.10;9.80;;;12.70;99.90;;;;;;5062263;28;20221;-61
2023/03/18 07:56:20;;;;;;;14.93;10.57;;;12.80;99.90;;;;;;5071843;28;20214;-61
2023/03/18 07:58:47;;;;;;;13.57;10.07;;;12.90;99.90;;;;;;5092921;27;20202;-61
2023/03/18 08:01:17;;;;;;;16.20;10.10;;;12.70;99.90;;;;;;5092922;27;20264;-61
2023/03/18 08:03:45;;;;;;;12.70;9.80;;;12.90;99.90;;;;;;5061842;27;20212;-61
2023/03/18 08:06:14;;;;;;;14.53;9.87;;;13.00;99.90;;;;;;5071728;28;20206;-61
2023/03/18 08:08:41;;;;;;;16.27;10.13;;;13.20;99.90;;;;;;5055168;28;20198;-61
2023/03/18 08:11:08;;;;;;;12.77;9.50;;;13.30;99.90;;;;;;5080686;28;20619;-61
2023/03/18 08:13:37;;;;;;;15.17;10.33;;;13.20;99.90;;;;;;5074388;28;20320;-60
2023/03/18 08:16:05;;;;;;;12.93;9.10;;;13.20;99.90;;;;;;5089107;27;20221;-60
2023/03/18 08:18:32;;;;;;;15.47;10.63;;;13.40;99.90;;;;;;5074705;28;20230;-60
2023/03/18 08:20:59;;;;;;;11.17;8.90;;;13.90;99.90;;;;;;5067921;28;20409;-60
2023/03/18 08:23:26;;;;;;;11.07;8.63;;;14.20;99.90;;;;;;5070611;28;20198;-60
2023/03/18 08:25:53;;;;;;;12.23;9.50;;;14.10;99.90;;;;;;5091644;27;20723;-60
2023/03/18 08:28:20;;;;;;;11.40;8.50;;;14.30;99.90;;;;;;5091114;27;20202;-60
2023/03/18 08:30:47;;;;;;;10.33;8.20;;;14.00;99.90;;;;;;5092766;27;20209;-62
2023/03/18 08:33:14;;;;;;;9.90;8.07;;;14.00;1.00;;;;;;5092202;28;20273;-60
2023/03/18 08:35:41;;;;;;;10.87;8.17;;;14.20;99.90;;;;;;5087658;28;22277;-60
2023/03/18 08:38:08;;;;;;;9.03;8.03;;;14.50;99.90;;;;;;5068590;28;20669;-62
2023/03/18 08:40:35;;;;;;;8.77;7.00;;;14.90;99.90;;;;;;5082623;28;20334;-61
2023/03/18 08:43:02;;;;;;;9.90;7.57;;;14.80;99.90;;;;;;5087450;27;20304;-60
2023/03/18 08:45:29;;;;;;;10.17;7.70;;;14.90;99.90;;;;;;5086358;27;20230;-60
2023/03/18 08:47:56;;;;;;;9.53;7.10;;;15.10;99.90;;;;;;5068475;28;20195;-61
2023/03/18 08:50:27;;;;;;;10.17;7.23;;;15.30;99.90;;;;;;5094742;28;20314;-61
2023/03/18 08:52:56;;;;;;;8.30;6.50;;;15.70;99.90;;;;;;5077848;28;20202;-61
2023/03/18 08:55:30;;;;;;;9.73;6.60;;;15.50;99.90;;;;;;5091331;28;20219;-61
2023/03/18 08:57:57;;;;;;;9.20;6.57;;;16.00;99.90;;;;;;5090783;28;20204;-62
2023/03/18 09:00:26;;;;;;;10.47;6.37;;;16.50;99.90;;;;;;5068267;28;20221;-61
2023/03/18 09:02:53;;;;;;;6.17;5.47;;;16.70;99.90;;;;;;5092221;27;20200;-63
2023/03/18 09:05:20;;;;;;;8.07;5.97;;;16.20;99.90;;;;;;5088072;28;20201;-61
2023/03/18 09:07:47;;;;;;;8.20;5.77;;;16.00;99.90;;;;;;5095662;27;20299;-61
2023/03/18 09:10:16;;;;;;;7.73;5.63;;;16.30;99.90;;;;;;5089349;27;20293;-61
2023/03/18 09:12:44;;;;;;;7.43;5.47;;;16.00;99.90;;;;;;5093948;27;20199;-61
2023/03/18 09:15:13;;;;;;;8.03;5.30;;;15.80;99.90;;;;;;5076390;28;20236;-61
2023/03/18 09:17:41;;;;;;;8.03;5.30;;;15.60;99.90;;;;;;5095228;28;20229;-61
2023/03/18 09:20:28;;;;;;;6.30;4.80;;;15.40;99.90;;;;;;5093411;28;20577;-61
2023/03/18 09:22:55;;;;;;;8.27;5.47;;;15.10;99.90;;;;;;5099114;28;20199;-62
2023/03/18 09:25:23;;;;;;;9.83;5.97;;;15.30;99.90;;;;;;5092622;28;20606;-61
2023/03/18 09:27:50;;;;;;;8.73;5.33;;;15.30;99.90;;;;;;5090511;28;20654;-61
2023/03/18 09:30:18;;;;;;;7.90;5.77;;;15.40;99.90;;;;;;5087602;28;20347;-61
2023/03/18 09:32:45;;;;;;;8.20;5.27;;;15.20;99.90;;;;;;5065070;28;20269;-61
2023/03/18 09:35:13;;;;;;;7.30;4.97;;;15.50;99.90;;;;;;5088438;28;20209;-62
2023/03/18 09:37:39;;;;;;;8.60;5.93;;;15.50;99.90;;;;;;5076109;28;20292;-61
2023/03/18 09:40:07;;;;;;;6.87;4.40;;;15.60;99.90;;;;;;5058785;28;20672;-64
2023/03/18 09:43:12;;;;;;;8.57;4.40;;;15.90;99.90;;;;;;5081142;28;20959;-61
2023/03/18 09:45:43;;;;;;;8.27;5.20;;;16.00;99.90;;;;;;5087338;28;20211;-61
2023/03/18 09:48:55;;;;;;;7.30;5.13;;;15.90;99.90;;;;;;5093501;28;20212;-61
2023/03/18 09:51:32;;;;;;;7.20;5.07;;;15.70;99.90;;;;;;5083797;28;20291;-61
2023/03/18 09:54:11;;;;;;;8.47;4.80;;;15.50;99.90;;;;;;5091531;28;20732;-61
2023/03/18 09:56:38;;;;;;;5.57;4.90;;;16.00;99.90;;;;;;5072798;28;20990;-61
2023/03/18 09:59:36;;;;;;;4.83;4.00;;;16.10;99.90;;;;;;5090103;28;20682;-61
2023/03/18 10:02:14;;;;;;;4.43;3.70;;;16.20;99.90;;;;;;5070806;28;20262;-61
2023/03/18 10:04:51;;;;;;;7.27;3.93;;;16.20;99.90;;;;;;5085724;28;20193;-61
2023/03/18 10:07:22;;;;;;;6.63;4.27;;;16.60;99.90;;;;;;5095626;28;20641;-61
2023/03/18 10:10:01;;;;;;;6.77;5.10;;;16.60;99.90;;;;;;5092691;28;21647;-61
2023/03/18 10:12:36;;;;;;;6.87;4.93;;;16.60;99.90;;;;;;5095436;28;20206;-61
2023/03/18 10:15:09;;;;;;;9.33;5.43;;;16.20;99.90;;;;;;5071182;28;20298;-61
2023/03/18 10:18:05;;;;;;;6.83;5.23;;;15.90;99.90;;;;;;5066152;28;20322;-61
2023/03/18 10:20:35;;;;;;;7.03;4.73;;;16.40;99.90;;;;;;5057306;28;20293;-60
2023/03/18 10:23:25;;;;;;;7.40;4.63;;;16.40;99.90;;;;;;5090152;27;20310;-62
2023/03/18 10:25:56;;;;;;;7.80;5.00;;;16.50;99.90;;;;;;5089216;28;20421;-62
2023/03/18 10:28:53;;;;;;;6.90;5.20;;;16.50;99.90;;;;;;5097985;28;21936;-62
2023/03/18 10:31:42;;;;;;;6.77;5.23;;;16.50;99.90;;;;;;5087896;27;20202;-62
2023/03/18 10:34:10;;;;;;;8.27;5.10;;;16.00;99.90;;;;;;5087493;28;20739;-62
2023/03/18 10:36:54;;;;;;;6.90;4.93;;;16.00;99.90;;;;;;5093869;28;20277;-62
2023/03/18 10:39:24;;;;;;;9.40;4.60;;;16.50;99.90;;;;;;5093908;28;20633;-62
2023/03/18 10:41:54;;;;;;;8.10;4.77;;;16.90;99.90;;;;;;5093903;28;20322;-64
2023/03/18 10:44:29;;;;;;;6.07;4.37;;;17.00;99.90;;;;;;5108665;27;20285;-63
2023/03/18 10:47:01;;;;;;;7.30;4.20;;;17.00;99.90;;;;;;5089620;28;20298;-62
2023/03/18 10:49:37;;;;;;;5.53;3.90;;;17.10;99.90;;;;;;5088292;28;20210;-62
2023/03/18 10:52:37;;;;;;;5.27;3.90;;;16.60;99.90;;;;;;5093704;28;20600;-62
2023/03/18 10:55:15;;;;;;;5.77;3.40;;;16.60;99.90;;;;;;5084248;28;20233;-62
2023/03/18 10:57:41;;;;;;;5.67;2.83;;;16.60;99.90;;;;;;5088064;28;20636;-62
2023/03/18 11:00:25;;;;;;;6.40;2.93;;;16.30;99.90;;;;;;5073899;28;20208;-63
2023/03/18 11:02:53;;;;;;;4.07;3.23;;;16.20;99.90;;;;;;5093701;28;20511;-62
2023/03/18 11:05:32;;;;;;;5.73;3.40;;;16.00;99.90;;;;;;5086149;28;22451;-62
2023/03/18 11:08:06;;;;;;;8.00;4.20;;;15.80;99.90;;;;;;5088593;28;20198;-63
2023/03/18 11:10:38;;;;;;;6.40;2.97;;;15.90;99.90;;;;;;5093918;28;20564;-62
2023/03/18 11:13:05;;;;;;;5.60;2.87;;;15.90;99.90;;;;;;5088617;28;20204;-62
2023/03/18 11:15:38;;;;;;;4.10;2.40;;;15.90;99.90;;;;;;5083264;28;20329;-63
2023/03/18 11:18:14;;;;;;;5.40;2.87;;;15.90;99.90;;;;;;5087726;28;20227;-63
2023/03/18 11:20:46;;;;;;;6.73;3.30;;;15.80;99.90;;;;;;5086791;28;20200;-62
2023/03/18 11:24:09;;;;;;;4.67;2.63;;;15.60;99.90;;;;;;5086044;28;20289;-62
2023/03/18 11:27:24;;;;;;;5.13;2.80;;;15.70;99.90;;;;;;5063422;27;20210;-62
2023/03/18 11:30:01;;;;;;;3.90;2.23;;;15.90;99.90;;;;;;5086012;28;20250;-62
2023/03/18 11:32:33;;;;;;;6.47;2.73;;;15.90;99.90;;;;;;5086176;28;20235;-62
2023/03/18 11:35:02;;;;;;;4.13;2.33;;;15.80;99.90;;;;;;5076956;28;20259;-62
2023/03/18 11:37:31;;;;;;;6.73;2.90;;;15.50;99.90;;;;;;5092921;28;20248;-62
2023/03/18 11:40:11;;;;;;;8.23;3.17;;;15.40;99.90;;;;;;5093182;28;20555;-61
2023/03/18 11:42:39;;;;;;;7.70;3.07;;;15.40;99.90;;;;;;5098256;28;20211;-62
2023/03/18 11:45:25;;;;;;;5.60;2.97;;;15.30;99.90;;;;;;5092897;28;20248;-65
2023/03/18 11:47:53;;;;;;;5.13;2.63;;;15.10;99.90;;;;;;5092388;28;20282;-62
2023/03/18 11:50:26;;;;;;;7.80;2.40;;;15.10;99.90;;;;;;5077003;28;20218;-62
2023/03/18 11:53:31;;;;;;;3.73;2.30;;;15.00;99.90;;;;;;5094152;28;20204;-62
2023/03/18 11:56:19;;;;;;;6.33;3.10;;;15.00;99.90;;;;;;5095709;28;20198;-61
2023/03/18 11:59:04;;;;;;;5.77;3.30;;;15.00;99.90;;;;;;5094278;27;20289;-62
2023/03/18 12:01:46;;;;;;;4.60;3.40;;;15.20;99.90;;;;;;5096004;28;20657;-62
2023/03/18 12:04:20;;;;;;;4.17;2.90;;;15.00;99.90;;;;;;5096269;28;20201;-62
2023/03/18 12:06:56;;;;;;;5.10;2.80;;;15.10;99.90;;;;;;5094439;28;20210;-63
2023/03/18 12:09:33;;;;;;;5.93;2.80;;;15.20;99.90;;;;;;5091803;27;20325;-62
2023/03/18 12:12:00;;;;;;;4.97;2.70;;;15.10;99.90;;;;;;5072336;28;20663;-62
2023/03/18 12:14:34;;;;;;;4.53;2.73;;;15.00;99.90;;;;;;5088029;27;20206;-62
2023/03/18 12:17:07;;;;;;;5.97;2.33;;;15.00;99.90;;;;;;5089911;27;20211;-62
2023/03/18 12:19:51;;;;;;;5.30;2.40;;;14.90;99.90;;;;;;5089249;27;20275;-62
2023/03/18 12:22:21;;;;;;;3.10;2.53;;;15.00;99.90;;;;;;5075215;28;20202;-62
2023/03/18 12:25:30;;;;;;;5.43;2.40;;;15.00;99.90;;;;;;5088875;27;21113;-62
2023/03/18 12:28:41;;;;;;;9.23;2.50;;;14.80;99.90;;;;;;5073161;28;20654;-61
2023/03/18 12:31:14;;;;;;;3.53;2.60;;;14.90;99.90;;;;;;5053652;28;20207;-62
2023/03/18 12:33:47;;;;;;;5.50;3.00;;;14.90;99.90;;;;;;5088716;28;20216;-63
2023/03/18 12:37:02;;;;;;;5.77;3.00;;;14.90;99.90;;;;;;5064063;28;20359;-62
2023/03/18 12:39:40;;;;;;;6.20;3.10;;;14.80;99.90;;;;;;5009586;28;20303;-62
2023/03/18 12:42:10;;;;;;;5.33;3.13;;;14.70;99.90;;;;;;5056320;28;20207;-62
2023/03/18 12:45:00;;;;;;;5.63;3.03;;;14.60;99.90;;;;;;5070251;28;20222;-61
2023/03/18 12:47:41;;;;;;;6.13;3.13;;;14.60;99.90;;;;;;5091786;28;20346;-61
2023/03/18 12:50:19;;;;;;;7.73;2.70;;;14.40;99.90;;;;;;5093019;28;20200;-62
2023/03/18 12:52:54;;;;;;;5.87;2.50;;;14.40;99.90;;;;;;5097685;28;20225;-63
2023/03/18 12:55:32;;;;;;;5.63;2.83;;;14.30;99.90;;;;;;5089963;28;20205;-62
2023/03/18 12:58:05;;;;;;;4.20;2.40;;;14.40;99.90;;;;;;5088918;28;20321;-61
2023/03/18 13:00:45;;;;;;;3.63;2.63;;;14.40;99.90;;;;;;5091974;28;20656;-63